createdAt,value
2023-03-11T00:02:03.279Z,97179.84
2023-03-11T00:04:10.644Z,97177.16
2023-03-11T00:06:15.304Z,97174.98
2023-03-11T00:08:22.757Z,97187.70
2023-03-11T00:10:30.262Z,97190.93
2023-03-11T00:12:35.309Z,97203.52
2023-03-11T00:14:40.055Z,97198.23
2023-03-11T00:16:47.449Z,97199.23
2023-03-11T00:18:53.557Z,97198.69
2023-03-11T00:20:59.588Z,97193.44
2023-03-11T00:23:05.698Z,97201.73
2023-03-11T00:25:12.022Z,97202.30
2023-03-11T00:27:16.637Z,97201.59
2023-03-11T00:29:22.300Z,97188.97
2023-03-11T00:31:27.181Z,97188.05
2023-03-11T00:33:31.895Z,97189.85
2023-03-11T00:35:37.317Z,97206.35
2023-03-11T00:37:42.184Z,97213.10
2023-03-11T00:39:46.792Z,97235.86
2023-03-11T00:41:51.510Z,97245.45
2023-03-11T00:43:56.221Z,97266.74
2023-03-11T00:46:01.167Z,97252.75
2023-03-11T00:48:06.266Z,97278.16
2023-03-11T00:50:16.299Z,97272.11
2023-03-11T00:52:21.020Z,97277.77
2023-03-11T00:54:26.136Z,97289.83
2023-03-11T00:56:30.982Z,97290.89
2023-03-11T00:58:35.620Z,97299.08
2023-03-11T01:00:41.368Z,97303.60
2023-03-11T01:02:46.268Z,97303.31
2023-03-11T01:04:55.212Z,97321.50
2023-03-11T01:06:59.962Z,97323.23
2023-03-11T01:09:04.943Z,97338.24
2023-03-11T01:11:10.060Z,97348.64
2023-03-11T01:13:14.734Z,97364.13
2023-03-11T01:15:23.700Z,97361.35
2023-03-11T01:17:28.406Z,97355.61
2023-03-11T01:19:33.072Z,97351.89
2023-03-11T01:21:39.054Z,97361.48
2023-03-11T01:23:44.899Z,97356.85
2023-03-11T01:25:49.926Z,97353.11
2023-03-11T01:27:54.581Z,97334.14
2023-03-11T01:29:59.294Z,97346.59
2023-03-11T01:32:04.476Z,97336.48
2023-03-11T01:34:09.249Z,97336.22
2023-03-11T01:36:13.888Z,97325.81
2023-03-11T01:38:18.611Z,97335.35
2023-03-11T01:40:26.956Z,97334.31
2023-03-11T01:42:31.747Z,97339.61
2023-03-11T01:44:36.462Z,97346.56
2023-03-11T01:47:20.021Z,97350.15
2023-03-11T01:49:24.769Z,97349.84
2023-03-11T01:51:33.422Z,97352.45
2023-03-11T01:53:38.181Z,97359.90
2023-03-11T01:55:43.492Z,97356.48
2023-03-11T01:57:49.618Z,97382.21
2023-03-11T01:59:58.598Z,97382.80
2023-03-11T02:02:09.783Z,97383.50
2023-03-11T02:04:16.085Z,97380.48
2023-03-11T02:06:23.877Z,97393.19
2023-03-11T02:08:29.339Z,97406.46
2023-03-11T02:10:34.420Z,97403.02
2023-03-11T02:12:39.934Z,97402.88
2023-03-11T02:14:48.421Z,97405.73
2023-03-11T02:16:53.228Z,97431.11
2023-03-11T02:19:00.472Z,97416.89
2023-03-11T02:21:15.976Z,97413.45
2023-03-11T02:23:24.882Z,97393.64
2023-03-11T02:25:36.232Z,97402.05
2023-03-11T02:27:45.470Z,97406.84
2023-03-11T02:29:51.356Z,97409.39
2023-03-11T02:31:56.953Z,97402.48
2023-03-11T02:34:05.930Z,97424.42
2023-03-11T02:36:32.239Z,97410.08
2023-03-11T02:38:37.251Z,97418.94
2023-03-11T02:40:51.848Z,97423.52
2023-03-11T02:43:00.436Z,97420.45
2023-03-11T02:45:09.175Z,97422.95
2023-03-11T02:47:14.523Z,97429.01
2023-03-11T02:49:20.474Z,97420.30
2023-03-11T02:51:25.331Z,97441.66
2023-03-11T02:53:33.044Z,97436.52
2023-03-11T02:55:38.244Z,97431.27
2023-03-11T02:57:44.802Z,97437.74
2023-03-11T02:59:49.478Z,97444.64
2023-03-11T03:01:54.814Z,97430.23
2023-03-11T03:03:59.648Z,97439.36
2023-03-11T03:06:05.306Z,97444.98
2023-03-11T03:08:10.084Z,97433.84
2023-03-11T03:10:16.866Z,97462.02
2023-03-11T03:12:21.640Z,97446.13
2023-03-11T03:14:26.458Z,97447.29
2023-03-11T03:16:31.193Z,97450.50
2023-03-11T03:18:35.950Z,97468.67
2023-03-11T03:20:40.632Z,97452.27
2023-03-11T03:22:45.641Z,97469.71
2023-03-11T03:24:51.922Z,97453.64
2023-03-11T03:26:56.729Z,97460.27
2023-03-11T03:29:01.534Z,97467.46
2023-03-11T03:31:08.060Z,97478.27
2023-03-11T03:33:13.398Z,97476.29
2023-03-11T03:35:18.562Z,97476.33
2023-03-11T03:37:43.540Z,97484.09
2023-03-11T03:39:48.196Z,97496.31
2023-03-11T03:41:53.008Z,97488.95
2023-03-11T03:43:58.820Z,97492.11
2023-03-11T03:46:05.449Z,97494.46
2023-03-11T03:48:16.132Z,97494.16
2023-03-11T03:50:22.551Z,97495.23
2023-03-11T03:52:27.863Z,97482.77
2023-03-11T03:54:32.720Z,97493.66
2023-03-11T03:56:38.041Z,97480.77
2023-03-11T03:58:42.977Z,97492.89
2023-03-11T04:00:48.057Z,97482.05
2023-03-11T04:02:52.951Z,97496.35
2023-03-11T04:05:03.613Z,97497.77
2023-03-11T04:07:08.514Z,97486.16
2023-03-11T04:09:16.573Z,97477.63
2023-03-11T04:11:22.154Z,97487.47
2023-03-11T04:13:26.900Z,97490.92
2023-03-11T04:15:32.658Z,97488.00
2023-03-11T04:17:38.136Z,97495.46
2023-03-11T04:19:42.984Z,97503.83
2023-03-11T04:21:48.180Z,97499.50
2023-03-11T04:23:52.998Z,97493.04
2023-03-11T04:25:58.638Z,97496.90
2023-03-11T04:28:03.440Z,97501.99
2023-03-11T04:30:11.379Z,97509.42
2023-03-11T04:32:16.261Z,97511.54
2023-03-11T04:34:21.865Z,97513.31
2023-03-11T04:36:27.321Z,97512.92
2023-03-11T04:38:32.011Z,97510.00
2023-03-11T04:40:38.058Z,97512.72
2023-03-11T04:42:43.033Z,97506.41
2023-03-11T04:44:47.917Z,97516.08
2023-03-11T04:46:53.032Z,97513.94
2023-03-11T04:48:57.773Z,97500.14
2023-03-11T04:51:02.748Z,97499.58
2023-03-11T04:53:07.608Z,97496.92
2023-03-11T04:55:13.574Z,97494.65
2023-03-11T04:57:18.638Z,97500.80
2023-03-11T04:59:23.508Z,97507.42
2023-03-11T05:01:28.851Z,97504.55
2023-03-11T05:03:35.024Z,97499.09
2023-03-11T05:05:39.877Z,97509.89
2023-03-11T05:07:44.674Z,97506.09
2023-03-11T05:09:50.099Z,97509.20
2023-03-11T05:11:54.885Z,97500.13
2023-03-11T05:13:59.721Z,97501.96
2023-03-11T05:16:08.045Z,97502.54
2023-03-11T05:18:12.941Z,97502.83
2023-03-11T05:20:18.612Z,97511.48
2023-03-11T05:22:23.923Z,97512.50
2023-03-11T05:24:28.921Z,97512.39
2023-03-11T05:26:34.082Z,97504.02
2023-03-11T05:28:39.164Z,97507.48
2023-03-11T05:30:43.917Z,97497.18
2023-03-11T05:32:48.763Z,97502.45
2023-03-11T05:34:53.698Z,97507.45
2023-03-11T05:36:59.684Z,97500.91
2023-03-11T05:39:06.849Z,97502.89
2023-03-11T05:41:12.176Z,97504.23
2023-03-11T05:43:18.100Z,97497.21
2023-03-11T05:45:27.526Z,97506.61
2023-03-11T05:47:32.661Z,97497.79
2023-03-11T05:49:37.566Z,97494.38
2023-03-11T05:51:42.528Z,97499.77
2023-03-11T05:53:48.695Z,97501.88
2023-03-11T05:56:00.720Z,97483.66
2023-03-11T05:58:08.358Z,97492.13
2023-03-11T06:00:14.709Z,97488.42
2023-03-11T06:02:21.085Z,97481.93
2023-03-11T06:04:26.826Z,97497.73
2023-03-11T06:06:32.188Z,97488.40
2023-03-11T06:08:38.167Z,97507.41
2023-03-11T06:10:43.471Z,97514.49
2023-03-11T06:12:48.460Z,97526.79
2023-03-11T06:15:06.959Z,97513.90
2023-03-11T06:17:11.708Z,97514.13
2023-03-11T06:19:16.455Z,97510.83
2023-03-11T06:21:26.317Z,97509.95
2023-03-11T06:23:32.022Z,97506.23
2023-03-11T06:25:37.199Z,97510.61
2023-03-11T06:27:41.869Z,97496.67
2023-03-11T06:29:48.651Z,97496.02
2023-03-11T06:31:53.985Z,97510.05
2023-03-11T06:33:58.797Z,97496.43
2023-03-11T06:36:05.202Z,97509.89
2023-03-11T06:38:10.101Z,97500.82
2023-03-11T06:40:16.540Z,97524.83
2023-03-11T06:42:21.653Z,97507.53
2023-03-11T06:44:26.763Z,97505.86
2023-03-11T06:46:31.636Z,97513.68
2023-03-11T06:48:36.386Z,97505.98
2023-03-11T06:50:41.172Z,97510.56
2023-03-11T06:52:45.833Z,97515.79
2023-03-11T06:54:51.276Z,97507.33
2023-03-11T06:56:55.918Z,97512.84
2023-03-11T06:59:00.598Z,97524.64
2023-03-11T07:01:11.099Z,97521.36
2023-03-11T07:03:16.063Z,97550.21
2023-03-11T07:05:21.696Z,97531.77
2023-03-11T07:07:26.593Z,97523.62
2023-03-11T07:09:31.523Z,97534.66
2023-03-11T07:11:36.441Z,97531.67
2023-03-11T07:13:46.737Z,97549.02
2023-03-11T07:15:59.115Z,97566.41
2023-03-11T07:18:03.936Z,97536.13
2023-03-11T07:20:11.084Z,97580.45
2023-03-11T07:22:15.928Z,97551.77
2023-03-11T07:24:21.022Z,97579.31
2023-03-11T07:26:27.376Z,97590.46
2023-03-11T07:28:32.277Z,97582.45
2023-03-11T07:30:40.073Z,97596.93
2023-03-11T07:32:44.805Z,97601.77
2023-03-11T07:34:49.617Z,97613.14
2023-03-11T07:36:54.295Z,97611.52
2023-03-11T07:39:03.143Z,97616.27
2023-03-11T07:41:09.158Z,97609.20
2023-03-11T07:43:13.829Z,97602.55
2023-03-11T07:45:21.691Z,97613.20
2023-03-11T07:47:26.351Z,97671.77
2023-03-11T07:49:31.317Z,97628.02
2023-03-11T07:51:39.672Z,97641.48
2023-03-11T07:53:44.802Z,97630.52
2023-03-11T07:55:55.028Z,97648.23
2023-03-11T07:57:59.764Z,97665.67
2023-03-11T08:00:05.081Z,97645.21
2023-03-11T08:02:16.405Z,97642.50
2023-03-11T08:04:21.098Z,97653.75
2023-03-11T08:06:28.278Z,97666.09
2023-03-11T08:08:32.939Z,97663.84
2023-03-11T08:10:39.650Z,97674.66
2023-03-11T08:12:44.345Z,97649.41
2023-03-11T08:14:49.512Z,97662.11
2023-03-11T08:16:54.197Z,97668.84
2023-03-11T08:18:59.207Z,97665.02
2023-03-11T08:21:07.740Z,97661.61
2023-03-11T08:23:12.609Z,97658.58
2023-03-11T08:25:17.648Z,97676.65
2023-03-11T08:27:22.363Z,97704.08
2023-03-11T08:29:27.250Z,97681.15
2023-03-11T08:31:33.512Z,97687.60
2023-03-11T08:33:38.287Z,97685.92
2023-03-11T08:35:43.135Z,97705.27
2023-03-11T08:37:50.834Z,97719.10
2023-03-11T08:39:55.447Z,97702.34
2023-03-11T08:42:00.082Z,97723.84
2023-03-11T08:44:05.180Z,97708.55
2023-03-11T08:46:14.346Z,97713.80
2023-03-11T08:48:19.072Z,97714.14
2023-03-11T08:50:23.986Z,97734.53
2023-03-11T08:52:28.694Z,97722.23
2023-03-11T08:54:33.733Z,97746.40
2023-03-11T08:56:38.406Z,97713.12
2023-03-11T08:58:43.142Z,97714.35
2023-03-11T09:00:47.989Z,97739.33
2023-03-11T09:02:52.757Z,97723.96
2023-03-11T09:04:57.436Z,97728.95
2023-03-11T09:07:02.047Z,97743.25
2023-03-11T09:09:06.749Z,97769.02
2023-03-11T09:11:13.180Z,97738.56
2023-03-11T09:13:17.875Z,97763.00
2023-03-11T09:15:22.633Z,97737.20
2023-03-11T09:17:27.339Z,97742.55
2023-03-11T09:19:31.986Z,97749.18
2023-03-11T09:21:37.110Z,97759.07
2023-03-11T09:23:44.149Z,97793.61
2023-03-11T09:25:49.336Z,97844.28
2023-03-11T09:27:54.125Z,97793.75
2023-03-11T09:29:58.875Z,97786.34
2023-03-11T09:32:03.742Z,97814.05
2023-03-11T09:34:08.513Z,97816.06
2023-03-11T09:36:15.499Z,97824.56
2023-03-11T09:38:23.088Z,97842.19
2023-03-11T09:40:52.452Z,97849.11
2023-03-11T09:43:11.064Z,97827.80
2023-03-11T09:45:19.443Z,97835.25
2023-03-11T09:47:42.218Z,97863.38
2023-03-11T09:50:23.193Z,97841.89
2023-03-11T09:52:38.134Z,97866.28
2023-03-11T09:54:45.889Z,97852.43
2023-03-11T09:56:50.892Z,97855.80
2023-03-11T09:59:01.439Z,97864.20
2023-03-11T10:01:15.169Z,97860.05
2023-03-11T10:03:32.865Z,97864.73
2023-03-11T10:05:38.387Z,97870.37
2023-03-11T10:07:45.641Z,97877.88
2023-03-11T10:09:54.130Z,97870.79
2023-03-11T10:12:20.191Z,97889.14
2023-03-11T10:14:40.749Z,97888.56
2023-03-11T10:16:56.798Z,97897.46
2023-03-11T10:19:11.356Z,97896.30
2023-03-11T10:21:26.071Z,97894.50
2023-03-11T10:23:42.415Z,97901.86
2023-03-11T10:25:59.779Z,97909.67
2023-03-11T10:28:11.996Z,97931.19
2023-03-11T10:30:29.722Z,97930.54
2023-03-11T10:32:41.105Z,97932.65
2023-03-11T10:34:51.710Z,97929.33
2023-03-11T10:37:02.401Z,97926.30
2023-03-11T10:39:09.969Z,97951.48
2023-03-11T10:41:20.585Z,97949.47
2023-03-11T10:43:31.748Z,97955.14
2023-03-11T10:45:40.442Z,97942.39
2023-03-11T10:47:45.096Z,97987.05
2023-03-11T10:49:49.960Z,97946.01
2023-03-11T10:51:56.212Z,97962.48
2023-03-11T10:54:03.345Z,97976.20
2023-03-11T10:56:19.193Z,97979.96
2023-03-11T10:58:26.274Z,97985.27
2023-03-11T11:00:31.752Z,97994.27
2023-03-11T11:02:43.663Z,98006.52
2023-03-11T11:04:49.277Z,97993.90
2023-03-11T11:06:53.952Z,98004.00
2023-03-11T11:09:14.134Z,98005.23
2023-03-11T11:11:24.539Z,98033.80
2023-03-11T11:13:30.881Z,98019.41
2023-03-11T11:15:37.480Z,97995.90
2023-03-11T11:17:49.042Z,98013.40
2023-03-11T11:19:55.156Z,98016.56
2023-03-11T11:22:05.445Z,97992.09
2023-03-11T11:24:20.348Z,97980.47
2023-03-11T11:26:26.431Z,97984.60
2023-03-11T11:28:31.577Z,97968.91
2023-03-11T11:30:36.210Z,97973.79
2023-03-11T11:32:41.011Z,97964.60
2023-03-11T11:34:56.854Z,97964.61
2023-03-11T11:37:04.263Z,97969.14
2023-03-11T11:39:17.008Z,97983.70
2023-03-11T11:41:24.301Z,97999.95
2023-03-11T11:43:48.307Z,97992.00
2023-03-11T11:45:57.489Z,98000.58
2023-03-11T11:48:10.222Z,98005.31
2023-03-11T11:50:31.672Z,98017.56
2023-03-11T11:52:45.077Z,97993.84
2023-03-11T11:54:54.230Z,97996.95
2023-03-11T11:57:01.316Z,98002.57
2023-03-11T11:59:15.081Z,98023.23
2023-03-11T12:01:28.772Z,98016.45
2023-03-11T12:04:00.705Z,98012.02
2023-03-11T12:06:12.320Z,98022.12
2023-03-11T12:08:22.339Z,98014.21
2023-03-11T12:10:31.915Z,98020.89
2023-03-11T12:12:45.552Z,98009.42
2023-03-11T12:14:57.763Z,98026.06
2023-03-11T12:17:04.490Z,98031.99
2023-03-11T12:19:19.136Z,98018.14
2023-03-11T12:21:35.800Z,98020.34
2023-03-11T12:23:55.121Z,98024.66
2023-03-11T12:26:13.550Z,98023.73
2023-03-11T12:28:23.762Z,98039.02
2023-03-11T12:30:31.808Z,98047.23
2023-03-11T12:32:42.217Z,98038.16
2023-03-11T12:34:48.873Z,98049.83
2023-03-11T12:36:55.998Z,98046.63
2023-03-11T12:39:02.130Z,98053.79
2023-03-11T12:41:26.436Z,98048.52
2023-03-11T12:44:01.603Z,98048.91
2023-03-11T12:46:07.832Z,98052.64
2023-03-11T12:48:41.564Z,98077.58
2023-03-11T12:50:46.369Z,98058.25
2023-03-11T12:52:55.380Z,98069.91
2023-03-11T12:55:36.454Z,98072.95
2023-03-11T12:57:52.861Z,98080.77
2023-03-11T13:00:21.168Z,98076.49
2023-03-11T13:02:43.172Z,98076.56
2023-03-11T13:05:00.040Z,98092.86
2023-03-11T13:07:28.641Z,98097.88
2023-03-11T13:09:33.366Z,98095.98
2023-03-11T13:11:44.763Z,98093.83
2023-03-11T13:13:49.507Z,98095.45
2023-03-11T13:15:55.110Z,98103.55
2023-03-11T13:18:02.356Z,98105.35
2023-03-11T13:20:43.300Z,98107.52
2023-03-11T13:23:24.541Z,98126.14
2023-03-11T13:25:43.624Z,98115.16
2023-03-11T13:27:51.801Z,98138.34
2023-03-11T13:30:06.334Z,98144.04
2023-03-11T13:32:42.321Z,98134.63
2023-03-11T13:34:54.864Z,98138.82
2023-03-11T13:37:20.840Z,98159.23
2023-03-11T13:39:37.090Z,98147.15
2023-03-11T13:41:43.941Z,98143.20
2023-03-11T13:43:51.339Z,98150.17
2023-03-11T13:46:02.075Z,98157.98
2023-03-11T13:48:13.965Z,98170.20
2023-03-11T13:50:26.190Z,98177.91
2023-03-11T13:52:35.030Z,98210.33
2023-03-11T13:54:46.495Z,98161.34
2023-03-11T13:56:56.791Z,98185.52
2023-03-11T13:59:18.465Z,98221.55
2023-03-11T14:01:23.642Z,98199.26
2023-03-11T14:03:33.733Z,98191.92
2023-03-11T14:05:45.495Z,98219.61
2023-03-11T14:07:50.489Z,98223.61
2023-03-11T14:10:24.573Z,98217.45
2023-03-11T14:12:32.625Z,98229.51
2023-03-11T14:14:56.663Z,98218.55
2023-03-11T14:17:02.906Z,98225.37
2023-03-11T14:19:14.531Z,98233.63
2023-03-11T14:21:22.598Z,98241.52
2023-03-11T14:23:30.720Z,98249.29
2023-03-11T14:25:35.814Z,98229.77
2023-03-11T14:27:46.421Z,98240.52
2023-03-11T14:29:52.174Z,98257.67
2023-03-11T14:31:57.484Z,98251.95
2023-03-11T14:34:04.892Z,98249.11
2023-03-11T14:36:15.285Z,98240.15
2023-03-11T14:38:24.887Z,98243.30
2023-03-11T14:40:33.038Z,98237.16
2023-03-11T14:42:41.310Z,98238.18
2023-03-11T14:44:52.531Z,98255.67
2023-03-11T14:47:04.778Z,98249.83
2023-03-11T14:49:16.299Z,98249.45
2023-03-11T14:51:27.176Z,98259.14
2023-03-11T14:53:37.895Z,98265.41
2023-03-11T14:55:47.836Z,98258.20
2023-03-11T14:57:57.554Z,98250.27
2023-03-11T15:00:04.998Z,98253.70
2023-03-11T15:02:33.175Z,98259.05
2023-03-11T15:04:41.208Z,98265.67
2023-03-11T15:06:47.756Z,98257.02
2023-03-11T15:08:56.362Z,98256.86
2023-03-11T15:11:06.756Z,98269.20
2023-03-11T15:13:16.584Z,98270.05
2023-03-11T15:15:28.163Z,98283.68
2023-03-11T15:17:39.497Z,98282.13
2023-03-11T15:19:48.322Z,98282.58
2023-03-11T15:21:54.649Z,98300.02
2023-03-11T15:24:03.214Z,98296.08
2023-03-11T15:26:16.866Z,98303.80
2023-03-11T15:28:28.248Z,98282.59
2023-03-11T15:30:33.305Z,98296.71
2023-03-11T15:32:42.633Z,98303.51
2023-03-11T15:34:59.885Z,98316.32
2023-03-11T15:37:21.495Z,98345.77
2023-03-11T15:39:40.833Z,98309.66
2023-03-11T15:41:47.601Z,98329.16
2023-03-11T15:43:53.611Z,98329.39
2023-03-11T15:46:02.109Z,98326.34
2023-03-11T15:48:10.221Z,98321.82
2023-03-11T15:50:46.791Z,98328.98
2023-03-11T15:53:00.770Z,98341.05
2023-03-11T15:55:07.403Z,98352.20
2023-03-11T15:57:20.946Z,98367.26
2023-03-11T15:59:29.051Z,98352.73
2023-03-11T16:01:35.012Z,98350.70
2023-03-11T16:03:39.963Z,98360.26
2023-03-11T16:05:47.207Z,98378.47
2023-03-11T16:07:52.111Z,98390.78
2023-03-11T16:09:58.416Z,98380.64
2023-03-11T16:12:09.279Z,98380.41
2023-03-11T16:14:19.152Z,98407.46
2023-03-11T16:16:25.363Z,98379.33
2023-03-11T16:18:30.809Z,98382.23
2023-03-11T16:20:40.171Z,98401.60
2023-03-11T16:22:46.055Z,98391.84
2023-03-11T16:24:54.042Z,98396.33
2023-03-11T16:26:59.371Z,98408.89
2023-03-11T16:29:18.298Z,98402.20
2023-03-11T16:31:24.655Z,98405.48
2023-03-11T16:33:29.817Z,98400.48
2023-03-11T16:35:35.919Z,98404.66
2023-03-11T16:37:41.697Z,98427.87
2023-03-11T16:39:47.107Z,98432.13
2023-03-11T16:41:54.642Z,98437.24
2023-03-11T16:43:59.445Z,98433.00
2023-03-11T16:46:04.776Z,98435.13
2023-03-11T16:48:11.006Z,98434.62
2023-03-11T16:50:16.973Z,98441.24
2023-03-11T16:52:23.236Z,98441.00
2023-03-11T16:54:28.816Z,98449.94
2023-03-11T16:56:34.981Z,98452.95
2023-03-11T16:58:40.535Z,98457.98
2023-03-11T17:00:46.606Z,98463.79
2023-03-11T17:02:52.738Z,98466.20
2023-03-11T17:04:58.413Z,98472.15
2023-03-11T17:07:04.446Z,98468.91
2023-03-11T17:09:09.959Z,98475.33
2023-03-11T17:11:19.890Z,98483.77
2023-03-11T17:13:26.605Z,98494.08
2023-03-11T17:15:33.267Z,98492.79
2023-03-11T17:17:38.820Z,98497.98
2023-03-11T17:19:44.754Z,98501.91
2023-03-11T17:21:51.567Z,98517.16
2023-03-11T17:23:57.528Z,98523.89
2023-03-11T17:26:02.831Z,98520.80
2023-03-11T17:28:09.605Z,98524.69
2023-03-11T17:30:35.586Z,98527.23
2023-03-11T17:32:43.488Z,98530.34
2023-03-11T17:34:50.569Z,98530.33
2023-03-11T17:36:57.949Z,98540.08
2023-03-11T17:39:03.831Z,98538.34
2023-03-11T17:41:14.939Z,98541.46
2023-03-11T17:43:21.199Z,98549.88
2023-03-11T17:45:28.487Z,98556.02
2023-03-11T17:47:35.473Z,98551.39
2023-03-11T17:49:41.977Z,98559.27
2023-03-11T17:51:51.750Z,98559.46
2023-03-11T17:53:59.101Z,98561.55
2023-03-11T17:56:06.346Z,98564.38
2023-03-11T17:58:12.738Z,98573.64
2023-03-11T18:00:20.351Z,98570.69
2023-03-11T18:02:26.915Z,98569.98
2023-03-11T18:04:33.514Z,98576.46
2023-03-11T18:06:39.635Z,98592.67
2023-03-11T18:08:45.779Z,98580.56
2023-03-11T18:10:53.857Z,98582.43
2023-03-11T18:13:03.399Z,98588.03
2023-03-11T18:15:12.026Z,98597.64
2023-03-11T18:17:19.954Z,98594.65
2023-03-11T18:19:25.667Z,98597.46
2023-03-11T18:21:32.148Z,98599.48
2023-03-11T18:23:37.710Z,98600.11
2023-03-11T18:25:43.596Z,98611.61
2023-03-11T18:27:49.151Z,98615.02
2023-03-11T18:29:55.633Z,98608.58
2023-03-11T18:32:02.598Z,98613.91
2023-03-11T18:34:08.680Z,98613.73
2023-03-11T18:36:16.999Z,98612.02
2023-03-11T18:38:24.102Z,98624.08
2023-03-11T18:40:29.592Z,98631.97
2023-03-11T18:42:36.847Z,98628.09
2023-03-11T18:44:43.132Z,98632.25
2023-03-11T18:46:50.946Z,98627.70
2023-03-11T18:48:57.369Z,98631.13
2023-03-11T18:51:06.809Z,98636.64
2023-03-11T18:53:13.309Z,98645.66
2023-03-11T18:55:19.975Z,98634.64
2023-03-11T18:57:26.432Z,98626.15
2023-03-11T18:59:32.822Z,98634.30
2023-03-11T19:01:40.012Z,98637.55
2023-03-11T19:03:50.118Z,98634.73
2023-03-11T19:05:59.899Z,98650.02
2023-03-11T19:08:06.911Z,98639.58
2023-03-11T19:10:14.172Z,98640.69
2023-03-11T19:12:20.942Z,98643.48
2023-03-11T19:14:26.756Z,98647.22
2023-03-11T19:16:34.016Z,98642.90
2023-03-11T19:18:40.348Z,98652.58
2023-03-11T19:20:56.999Z,98655.03
2023-03-11T19:23:02.564Z,98658.31
2023-03-11T19:25:10.392Z,98663.17
2023-03-11T19:27:18.890Z,98664.27
2023-03-11T19:29:26.049Z,98668.84
2023-03-11T19:31:33.965Z,98681.73
2023-03-11T19:33:40.191Z,98682.07
2023-03-11T19:35:51.808Z,98686.41
2023-03-11T19:37:57.812Z,98696.61
2023-03-11T19:40:03.586Z,98691.44
2023-03-11T19:42:13.140Z,98689.98
2023-03-11T19:44:22.362Z,98684.15
2023-03-11T19:46:28.273Z,98692.02
2023-03-11T19:48:34.885Z,98692.94
2023-03-11T19:50:47.658Z,98691.34
2023-03-11T19:52:54.396Z,98695.63
2023-03-11T19:55:00.745Z,98696.59
2023-03-11T19:57:07.774Z,98695.87
2023-03-11T19:59:14.433Z,98694.10
2023-03-11T20:01:21.944Z,98699.23
2023-03-11T20:03:29.261Z,98706.26
2023-03-11T20:05:37.041Z,98702.36
2023-03-11T20:07:43.479Z,98706.61
2023-03-11T20:09:49.550Z,98709.63
2023-03-11T20:11:55.402Z,98723.89
2023-03-11T20:14:02.719Z,98717.34
2023-03-11T20:16:12.721Z,98724.58
2023-03-11T20:18:20.195Z,98718.88
2023-03-11T20:20:25.575Z,98715.50
2023-03-11T20:22:30.778Z,98716.33
2023-03-11T20:24:36.733Z,98720.37
2023-03-11T20:26:42.741Z,98726.27
2023-03-11T20:28:48.663Z,98728.20
2023-03-11T20:30:58.805Z,98729.45
2023-03-11T20:33:05.385Z,98732.06
2023-03-11T20:35:13.674Z,98723.46
2023-03-11T20:37:19.737Z,98731.94
2023-03-11T20:39:26.900Z,98735.94
2023-03-11T20:41:37.814Z,98728.27
2023-03-11T20:43:45.260Z,98733.02
2023-03-11T20:45:51.236Z,98735.29
2023-03-11T20:47:57.329Z,98740.39
2023-03-11T20:50:03.204Z,98736.12
2023-03-11T20:52:09.563Z,98739.80
2023-03-11T20:54:15.953Z,98745.80
2023-03-11T20:56:24.035Z,98746.73
2023-03-11T20:58:29.802Z,98747.18
2023-03-11T21:00:35.525Z,98749.27
2023-03-11T21:02:42.268Z,98755.42
2023-03-11T21:04:48.677Z,98750.40
2023-03-11T21:06:54.437Z,98754.88
2023-03-11T21:09:02.054Z,98756.77
2023-03-11T21:11:08.211Z,98753.64
2023-03-11T21:13:13.589Z,98752.73
2023-03-11T21:15:20.647Z,98756.90
2023-03-11T21:17:26.311Z,98756.67
2023-03-11T21:19:32.233Z,98758.47
2023-03-11T21:21:38.326Z,98765.25
2023-03-11T21:23:44.359Z,98773.00
2023-03-11T21:25:49.730Z,98765.30
2023-03-11T21:27:54.798Z,98765.77
2023-03-11T21:30:01.008Z,98758.95
2023-03-11T21:32:06.369Z,98770.39
2023-03-11T21:34:12.370Z,98762.41
2023-03-11T21:36:18.347Z,98762.77
2023-03-11T21:38:23.616Z,98766.70
2023-03-11T21:40:29.220Z,98772.66
2023-03-11T21:42:34.503Z,98776.27
2023-03-11T21:44:40.479Z,98776.05
2023-03-11T21:46:45.235Z,98781.74
2023-03-11T21:48:50.461Z,98791.92
2023-03-11T21:50:55.183Z,98794.06
2023-03-11T21:53:00.209Z,98789.89
2023-03-11T21:55:05.589Z,98791.66
2023-03-11T21:57:13.081Z,98789.66
2023-03-11T21:59:18.020Z,98790.50
2023-03-11T22:01:22.897Z,98791.52
2023-03-11T22:03:28.095Z,98790.05
2023-03-11T22:05:33.170Z,98795.23
2023-03-11T22:07:38.126Z,98798.23
2023-03-11T22:09:43.083Z,98798.70
2023-03-11T22:11:47.951Z,98800.13
2023-03-11T22:13:54.502Z,98801.05
2023-03-11T22:16:01.769Z,98808.88
2023-03-11T22:18:06.801Z,98813.33
2023-03-11T22:20:13.447Z,98825.52
2023-03-11T22:22:18.454Z,98820.64
2023-03-11T22:24:23.212Z,98819.54
2023-03-11T22:26:27.954Z,98815.06
2023-03-11T22:28:33.290Z,98824.51
2023-03-11T22:30:38.224Z,98824.32
2023-03-11T22:32:43.045Z,98824.30
2023-03-11T22:34:47.719Z,98827.98
2023-03-11T22:36:52.452Z,98838.90
2023-03-11T22:38:57.268Z,98839.06
2023-03-11T22:41:03.584Z,98834.67
2023-03-11T22:43:08.343Z,98832.56
2023-03-11T22:45:13.581Z,98832.04
2023-03-11T22:47:18.354Z,98833.29
2023-03-11T22:49:23.043Z,98837.70
2023-03-11T22:51:27.882Z,98837.93
2023-03-11T22:53:32.637Z,98837.52
2023-03-11T22:55:41.402Z,98840.10
2023-03-11T22:57:46.272Z,98846.39
2023-03-11T22:59:51.094Z,98851.62
2023-03-11T23:01:56.795Z,98858.48
2023-03-11T23:04:01.513Z,98857.38
2023-03-11T23:06:08.756Z,98856.48
2023-03-11T23:08:16.163Z,98858.67
2023-03-11T23:10:21.460Z,98859.00
2023-03-11T23:12:26.325Z,98862.33
2023-03-11T23:14:44.149Z,98861.47
2023-03-11T23:16:49.978Z,98865.89
2023-03-11T23:18:58.880Z,98867.91
2023-03-11T23:21:03.833Z,98868.72
2023-03-11T23:23:09.030Z,98869.27
2023-03-11T23:25:16.583Z,98872.85
2023-03-11T23:27:21.351Z,98876.58
2023-03-11T23:29:26.094Z,98875.52
2023-03-11T23:31:31.101Z,98881.34
2023-03-11T23:33:35.997Z,98878.02
2023-03-11T23:35:43.158Z,98884.96
2023-03-11T23:37:50.826Z,98884.87
2023-03-11T23:39:55.635Z,98893.37
2023-03-11T23:42:02.064Z,98899.85
2023-03-11T23:44:06.992Z,98893.66
2023-03-11T23:46:11.836Z,98895.25
2023-03-11T23:48:16.531Z,98898.53
2023-03-11T23:50:21.389Z,98896.20
2023-03-11T23:52:26.508Z,98899.35
2023-03-11T23:54:31.162Z,98896.27
2023-03-11T23:56:35.806Z,98901.30
2023-03-11T23:58:40.650Z,98895.61
